Time;durP1;ratioP1;P1;durP2;ratioP2;P2;SDS_P1;SDS_P2;PMS_P1;PMS_P2;Temp;Humidity;BMP_temperature;BMP_pressure;BME280_temperature;BME280_humidity;BME280_pressure;Samples;Min_cycle;Max_cycle;Signal;HPM_P1;HPM_P2
2021/05/05 00:00:14;;;;;;;10.07;2.60;;;;;;;19.78;49.70;100811.75;5111928;28;20039;-64
2021/05/05 00:02:44;;;;;;;7.63;1.98;;;;;;;19.77;49.99;100816.22;5111357;28;20407;-65
2021/05/05 00:05:11;;;;;;;10.60;2.45;;;;;;;19.68;50.11;100807.53;5111470;28;20396;-64
2021/05/05 00:07:39;;;;;;;7.95;2.13;;;;;;;19.47;50.42;100808.84;5110387;28;20081;-65
2021/05/05 00:10:10;;;;;;;9.13;2.33;;;;;;;19.47;50.53;100807.06;5110234;28;20039;-65
2021/05/05 00:12:38;;;;;;;8.07;2.83;;;;;;;19.43;50.48;100807.97;5111085;28;20070;-65
2021/05/05 00:15:08;;;;;;;9.70;1.80;;;;;;;19.49;50.41;100796.31;5111769;28;20368;-65
2021/05/05 00:17:35;;;;;;;11.70;2.40;;;;;;;19.45;50.35;100798.13;5110936;28;20338;-65
2021/05/05 00:20:04;;;;;;;9.98;2.28;;;;;;;19.46;50.18;100804.41;5111507;28;20479;-64
2021/05/05 00:22:32;;;;;;;5.63;1.90;;;;;;;19.27;50.66;100797.59;5111489;28;20123;-65
2021/05/05 00:24:59;;;;;;;7.65;1.90;;;;;;;19.18;50.82;100795.97;5111299;28;20131;-64
2021/05/05 00:27:27;;;;;;;10.15;2.30;;;;;;;19.22;50.68;100795.03;5093130;28;20135;-64
2021/05/05 00:29:54;;;;;;;13.73;3.03;;;;;;;19.22;50.57;100800.38;5110581;28;20052;-64
2021/05/05 00:32:42;;;;;;;11.13;2.28;;;;;;;19.06;50.80;100797.09;5110976;28;20088;-64
2021/05/05 00:35:11;;;;;;;6.75;1.40;;;;;;;18.90;51.19;100810.81;5111142;28;20474;-64
2021/05/05 00:37:38;;;;;;;7.95;2.63;;;;;;;18.84;51.29;100803.75;5110828;28;20492;-64
2021/05/05 00:40:07;;;;;;;7.50;1.90;;;;;;;19.01;50.94;100800.78;5110146;28;20043;-67
2021/05/05 00:42:36;;;;;;;7.88;2.15;;;;;;;19.10;50.72;100795.22;5110506;28;20111;-65
2021/05/05 00:45:08;;;;;;;7.57;2.05;;;;;;;18.93;51.11;100787.53;5111143;28;20043;-64
2021/05/05 00:47:35;;;;;;;8.38;1.77;;;;;;;18.78;51.49;100786.91;5111198;28;20454;-64
2021/05/05 00:50:02;;;;;;;11.57;2.05;;;;;;;18.70;51.77;100795.97;5111274;28;20047;-64
2021/05/05 00:52:29;;;;;;;7.72;2.10;;;;;;;18.51;52.09;100789.13;5111476;28;20059;-64
2021/05/05 00:54:57;;;;;;;12.73;2.65;;;;;;;18.56;52.06;100781.97;5110992;28;20067;-64
2021/05/05 00:57:24;;;;;;;8.73;2.03;;;;;;;18.54;51.94;100775.72;5110987;28;20073;-64
2021/05/05 00:59:54;;;;;;;7.65;2.40;;;;;;;18.57;51.93;100775.72;5110983;28;20023;-65
2021/05/05 01:02:22;;;;;;;6.53;1.67;;;;;;;18.70;51.78;100768.34;5111720;28;20126;-64
2021/05/05 01:04:49;;;;;;;10.60;2.08;;;;;;;18.71;51.86;100772.78;5110601;28;20395;-65
2021/05/05 01:07:17;;;;;;;11.35;2.60;;;;;;;18.81;51.68;100773.50;5111570;28;20122;-64
2021/05/05 01:09:45;;;;;;;7.80;1.95;;;;;;;18.87;51.54;100778.75;5110515;28;20044;-65
2021/05/05 01:12:13;;;;;;;9.20;2.30;;;;;;;18.86;51.36;100766.28;5110995;28;20127;-64
2021/05/05 01:14:41;;;;;;;7.32;2.33;;;;;;;18.72;51.71;100766.50;5110420;28;20063;-65
2021/05/05 01:17:10;;;;;;;10.13;1.98;;;;;;;18.67;51.82;100763.03;5111201;28;20050;-64
2021/05/05 01:19:37;;;;;;;7.93;2.20;;;;;;;18.62;51.92;100762.25;5110396;28;20066;-65
2021/05/05 01:22:06;;;;;;;8.30;2.30;;;;;;;18.53;52.25;100768.59;5111637;28;20038;-65
2021/05/05 01:24:35;;;;;;;9.43;2.35;;;;;;;18.51;52.34;100767.72;5110301;28;20068;-65
2021/05/05 01:27:04;;;;;;;6.20;1.75;;;;;;;18.47;52.36;100768.69;5110356;28;20069;-64
2021/05/05 01:29:32;;;;;;;11.18;2.53;;;;;;;18.33;52.69;100768.91;5110021;28;20058;-65
2021/05/05 01:31:59;;;;;;;6.18;2.00;;;;;;;18.46;52.46;100766.94;5110261;28;20118;-65
2021/05/05 01:34:27;;;;;;;8.73;1.50;;;;;;;18.62;51.79;100757.78;5110746;28;20043;-65
2021/05/05 01:36:54;;;;;;;11.95;2.38;;;;;;;18.68;51.26;100754.13;5110418;28;20398;-64
2021/05/05 01:39:23;;;;;;;10.38;2.28;;;;;;;18.65;51.23;100744.34;5109372;28;20399;-65
2021/05/05 01:41:51;;;;;;;9.05;1.58;;;;;;;18.67;50.97;100741.66;5110350;28;20042;-65
2021/05/05 01:44:18;;;;;;;7.70;1.95;;;;;;;18.59;51.19;100751.59;5109381;28;20035;-65
2021/05/05 01:46:48;;;;;;;10.02;1.65;;;;;;;18.58;51.34;100747.16;5109711;28;20044;-65
2021/05/05 01:49:21;;;;;;;8.93;2.10;;;;;;;18.59;51.28;100743.56;5108871;28;20067;-64
2021/05/05 01:51:49;;;;;;;5.75;1.40;;;;;;;18.52;51.28;100750.78;5108204;28;20051;-65
2021/05/05 01:54:17;;;;;;;8.15;1.60;;;;;;;18.45;51.52;100751.78;5108825;28;20028;-65
2021/05/05 01:56:45;;;;;;;5.80;1.38;;;;;;;18.47;51.37;100741.09;5110118;28;20126;-64
2021/05/05 01:59:13;;;;;;;6.53;1.85;;;;;;;18.52;51.15;100739.19;5110332;28;20118;-65
2021/05/05 02:01:40;;;;;;;7.00;1.73;;;;;;;18.56;50.88;100733.84;5109609;28;20036;-64
2021/05/05 02:04:07;;;;;;;8.90;2.00;;;;;;;18.45;51.13;100741.09;5114981;28;20061;-65
2021/05/05 02:06:34;;;;;;;11.65;1.70;;;;;;;18.41;51.27;100734.06;5114944;28;20118;-65
2021/05/05 02:09:02;;;;;;;5.97;1.85;;;;;;;18.44;51.08;100728.66;5114244;28;20047;-65
2021/05/05 02:11:29;;;;;;;7.30;2.05;;;;;;;18.36;51.28;100735.94;5114402;28;20078;-65
2021/05/05 02:13:57;;;;;;;6.53;1.65;;;;;;;18.38;51.36;100730.56;5113459;28;20587;-64
2021/05/05 02:16:24;;;;;;;8.20;1.52;;;;;;;18.39;51.31;100732.31;5114133;28;20052;-64
2021/05/05 02:18:51;;;;;;;10.32;1.77;;;;;;;18.37;51.29;100736.81;5114679;28;20042;-65
2021/05/05 02:21:18;;;;;;;8.88;1.60;;;;;;;18.26;51.58;100734.28;5114178;28;20113;-65
2021/05/05 02:23:46;;;;;;;7.35;1.58;;;;;;;18.25;51.46;100730.75;5114241;28;20109;-64
2021/05/05 02:26:13;;;;;;;7.75;2.17;;;;;;;18.38;51.09;100739.44;5113136;28;20125;-64
2021/05/05 02:28:40;;;;;;;10.77;1.60;;;;;;;18.47;50.65;100728.59;5113131;28;20047;-64
2021/05/05 02:31:09;;;;;;;5.93;1.40;;;;;;;18.40;50.76;100734.06;5114128;28;20065;-65
2021/05/05 02:33:36;;;;;;;9.70;2.08;;;;;;;18.32;50.90;100732.41;5114394;28;20045;-65
2021/05/05 02:36:04;;;;;;;6.15;1.88;;;;;;;18.24;51.12;100731.69;5112659;28;20495;-65
2021/05/05 02:38:31;;;;;;;7.28;1.52;;;;;;;18.21;51.23;100731.72;5113479;28;20032;-64
2021/05/05 02:40:58;;;;;;;10.02;1.85;;;;;;;18.21;51.14;100733.50;5113675;28;20131;-65
2021/05/05 02:43:25;;;;;;;8.50;1.98;;;;;;;18.15;51.41;100734.47;5112566;28;20039;-65
2021/05/05 02:45:53;;;;;;;4.38;1.40;;;;;;;18.16;51.49;100727.34;5112717;28;20130;-64
2021/05/05 02:48:21;;;;;;;10.57;2.00;;;;;;;18.12;51.66;100736.31;5113493;28;20032;-65
2021/05/05 02:50:48;;;;;;;9.73;1.75;;;;;;;18.11;51.58;100747.94;5113334;28;20055;-64
2021/05/05 02:53:15;;;;;;;11.15;1.60;;;;;;;18.12;51.47;100747.88;5112516;28;20551;-65
2021/05/05 02:55:44;;;;;;;7.32;1.92;;;;;;;18.12;51.73;100755.88;5113097;28;20040;-65
2021/05/05 02:58:11;;;;;;;6.78;1.90;;;;;;;18.14;51.67;100747.84;5112524;28;20574;-64
2021/05/05 03:00:38;;;;;;;11.85;1.90;;;;;;;18.16;51.74;100752.28;5113972;28;20039;-64
2021/05/05 03:03:05;;;;;;;6.18;2.13;;;;;;;18.20;51.84;100750.44;5114228;28;20039;-65
2021/05/05 03:05:34;;;;;;;10.55;2.08;;;;;;;18.12;52.05;100747.88;5113816;28;20036;-65
2021/05/05 03:08:01;;;;;;;6.07;1.90;;;;;;;18.13;52.06;100752.31;5113724;28;20035;-64
2021/05/05 03:10:28;;;;;;;8.75;1.90;;;;;;;18.10;52.15;100762.19;5113568;28;20039;-65
2021/05/05 03:12:55;;;;;;;10.70;1.95;;;;;;;18.00;52.30;100769.44;5113368;28;20090;-65
2021/05/05 03:15:23;;;;;;;7.95;2.10;;;;;;;17.85;52.77;100764.34;5112960;28;20035;-64
2021/05/05 03:17:50;;;;;;;8.63;2.47;;;;;;;17.89;52.71;100766.03;5111851;28;20415;-64
2021/05/05 03:20:17;;;;;;;8.35;1.70;;;;;;;17.96;52.64;100765.06;5113343;28;20122;-64
2021/05/05 03:22:45;;;;;;;8.13;2.00;;;;;;;18.01;52.57;100771.22;5113159;28;20046;-64
2021/05/05 03:25:13;;;;;;;11.63;2.42;;;;;;;18.05;52.68;100762.22;5094716;28;20399;-66
2021/05/05 03:27:40;;;;;;;14.00;2.22;;;;;;;18.10;52.60;100772.88;5113177;28;20452;-64
2021/05/05 03:30:09;;;;;;;8.68;2.20;;;;;;;18.17;52.50;100777.22;5113412;28;20042;-66
2021/05/05 03:32:36;;;;;;;6.82;1.77;;;;;;;18.16;52.68;100787.03;5112844;28;20031;-65
2021/05/05 03:35:04;;;;;;;9.50;2.28;;;;;;;18.15;52.89;100789.72;5112679;28;20119;-65
2021/05/05 03:37:31;;;;;;;6.18;1.60;;;;;;;18.18;52.69;100795.88;5112624;28;20043;-65
2021/05/05 03:39:59;;;;;;;7.07;1.63;;;;;;;18.32;52.55;100795.66;5112428;28;20109;-65
2021/05/05 03:42:27;;;;;;;9.93;2.38;;;;;;;18.49;52.16;100792.75;5098713;28;20036;-65
2021/05/05 03:44:54;;;;;;;10.75;1.92;;;;;;;18.62;52.00;100797.00;5091798;28;20079;-65
2021/05/05 03:47:22;;;;;;;11.38;2.33;;;;;;;18.80;51.82;100795.81;5092623;28;20040;-65
2021/05/05 03:49:49;;;;;;;11.27;2.08;;;;;;;18.92;51.73;100793.78;5092360;28;20101;-64
2021/05/05 03:52:16;;;;;;;6.70;1.85;;;;;;;19.02;51.90;100799.88;5092212;28;20555;-65
2021/05/05 03:54:43;;;;;;;10.50;2.00;;;;;;;19.07;52.16;100793.53;5091975;28;20046;-65
2021/05/05 03:57:12;;;;;;;15.80;2.65;;;;;;;19.16;52.16;100789.81;5091652;28;20094;-64
2021/05/05 03:59:39;;;;;;;9.40;2.05;;;;;;;19.29;52.11;100787.75;5091435;28;20141;-65
2021/05/05 04:02:06;;;;;;;12.63;3.00;;;;;;;19.49;52.09;100793.63;5092695;28;20168;-65
2021/05/05 04:04:33;;;;;;;10.35;3.05;;;;;;;19.69;51.94;100799.44;5091581;28;20126;-65
2021/05/05 04:07:00;;;;;;;11.55;2.58;;;;;;;19.86;51.94;100805.31;5091431;28;20105;-64
2021/05/05 04:09:28;;;;;;;8.35;2.83;;;;;;;20.10;51.55;100798.53;5091717;28;20051;-65
2021/05/05 04:11:55;;;;;;;10.30;2.58;;;;;;;20.32;51.55;100808.75;5091967;28;20083;-65
2021/05/05 04:14:23;;;;;;;10.45;3.03;;;;;;;20.53;51.12;100817.22;5091597;28;20122;-65
2021/05/05 04:16:50;;;;;;;9.95;3.15;;;;;;;20.75;50.69;100816.66;5091342;28;20182;-65
2021/05/05 04:19:17;;;;;;;9.93;2.03;;;;;;;20.93;50.23;100808.16;5092038;28;20146;-65
2021/05/05 04:21:44;;;;;;;5.57;1.77;;;;;;;21.12;50.00;100812.13;5090874;28;20040;-64
2021/05/05 04:24:13;;;;;;;11.50;2.95;;;;;;;21.31;49.79;100815.22;5091019;28;20043;-65
2021/05/05 04:26:40;;;;;;;7.90;1.75;;;;;;;21.54;49.55;100822.59;5091184;28;20067;-65
2021/05/05 04:29:07;;;;;;;14.35;2.97;;;;;;;21.70;49.20;100830.19;5091186;28;20119;-65
2021/05/05 04:31:36;;;;;;;13.68;2.15;;;;;;;21.81;49.20;100829.88;5091588;28;20162;-65
2021/05/05 04:34:03;;;;;;;8.93;1.60;;;;;;;21.91;49.25;100823.31;5091017;28;20071;-65
2021/05/05 04:36:30;;;;;;;8.75;2.03;;;;;;;22.01;48.67;100827.50;5091120;28;20455;-65
2021/05/05 04:38:57;;;;;;;8.45;2.00;;;;;;;22.08;48.65;100815.63;5090976;28;20055;-65
2021/05/05 04:41:24;;;;;;;8.95;1.83;;;;;;;22.18;48.43;100818.94;5089434;28;20094;-65
2021/05/05 04:43:52;;;;;;;9.20;2.05;;;;;;;22.37;48.26;100824.63;5089320;28;20036;-64
2021/05/05 04:46:19;;;;;;;13.48;2.60;;;;;;;22.57;48.28;100822.16;5091237;28;20040;-64
2021/05/05 04:48:47;;;;;;;8.80;2.17;;;;;;;22.78;47.95;100824.16;5073120;28;20059;-65
2021/05/05 04:51:14;;;;;;;9.38;2.20;;;;;;;22.97;47.41;100827.97;5091293;28;20039;-65
2021/05/05 04:53:42;;;;;;;18.25;3.17;;;;;;;23.09;46.98;100828.50;5089392;28;20183;-65
2021/05/05 04:56:09;;;;;;;9.27;2.25;;;;;;;23.34;46.88;100819.50;5090595;28;20573;-65
2021/05/05 04:58:36;;;;;;;12.23;2.22;;;;;;;23.66;46.59;100826.44;5091731;28;20036;-65
2021/05/05 05:01:04;;;;;;;8.95;1.90;;;;;;;24.02;46.33;100826.00;5091104;28;20499;-65
2021/05/05 05:03:31;;;;;;;6.65;1.83;;;;;;;24.37;45.61;100830.00;5090614;28;20476;-65
2021/05/05 05:06:00;;;;;;;10.05;1.90;;;;;;;24.69;44.85;100842.19;5070950;28;20492;-65
2021/05/05 05:08:27;;;;;;;8.52;2.30;;;;;;;24.93;44.19;100850.19;5066536;28;20036;-65
2021/05/05 05:10:54;;;;;;;9.27;2.03;;;;;;;25.09;43.79;100842.31;5089868;28;20503;-65
2021/05/05 05:13:22;;;;;;;8.95;2.05;;;;;;;25.19;43.59;100851.78;5080339;28;20384;-65
2021/05/05 05:15:49;;;;;;;9.73;2.67;;;;;;;25.39;43.25;100854.50;5081242;28;20139;-65
2021/05/05 05:18:16;;;;;;;9.50;1.60;;;;;;;25.66;42.53;100865.06;5072408;28;20512;-65
2021/05/05 05:20:43;;;;;;;9.35;1.50;;;;;;;25.91;41.78;100857.59;5089998;28;20456;-65
2021/05/05 05:23:12;;;;;;;9.98;1.77;;;;;;;26.20;40.68;100861.59;5069194;28;20555;-66
2021/05/05 05:25:39;;;;;;;6.82;1.75;;;;;;;26.39;40.39;100856.22;5087826;28;20036;-65
2021/05/05 05:28:06;;;;;;;11.73;2.33;;;;;;;26.65;40.80;100863.94;5090071;28;20483;-65
2021/05/05 05:30:33;;;;;;;8.52;2.00;;;;;;;26.89;41.09;100862.78;5089737;28;20067;-65
2021/05/05 05:33:00;;;;;;;12.95;2.15;;;;;;;27.11;41.04;100867.97;5087664;28;20131;-65
2021/05/05 05:35:28;;;;;;;16.77;2.00;;;;;;;27.27;41.90;100878.91;5090337;28;20488;-65
2021/05/05 05:37:55;;;;;;;10.38;5.00;;;;;;;27.40;42.81;100890.00;5089753;28;20123;-65
2021/05/05 05:40:23;;;;;;;17.77;4.30;;;;;;;27.52;43.47;100890.28;5093496;28;20071;-66
2021/05/05 05:42:50;;;;;;;7.88;2.30;;;;;;;27.55;43.00;100890.13;5112393;27;20051;-65
2021/05/05 05:45:18;;;;;;;12.55;3.70;;;;;;;27.64;43.05;100895.06;5120411;27;20047;-65
2021/05/05 05:47:46;;;;;;;10.57;2.53;;;;;;;27.77;43.07;100898.88;5114866;28;20062;-65
2021/05/05 05:50:14;;;;;;;11.13;2.22;;;;;;;27.87;43.32;100898.38;5115217;28;20042;-66
2021/05/05 05:52:42;;;;;;;11.65;2.67;;;;;;;28.09;42.79;100901.69;5112384;28;20073;-65
2021/05/05 05:55:13;;;;;;;17.88;2.40;;;;;;;28.11;42.75;100899.75;5114674;28;20444;-65
2021/05/05 05:57:42;;;;;;;9.18;1.90;;;;;;;28.08;42.78;100895.38;5113761;28;20446;-65
2021/05/05 06:00:11;;;;;;;10.88;3.35;;;;;;;28.01;42.84;100895.81;5113947;28;20043;-66
2021/05/05 06:02:38;;;;;;;10.95;2.75;;;;;;;28.07;43.06;100899.06;5114784;28;20380;-65
2021/05/05 06:05:11;;;;;;;10.00;2.17;;;;;;;28.12;42.74;100902.41;5115153;28;20050;-65
2021/05/05 06:07:38;;;;;;;13.98;2.40;;;;;;;28.16;42.87;100900.41;5114328;28;20380;-65
2021/05/05 06:10:07;;;;;;;8.88;2.60;;;;;;;28.14;42.82;100900.50;5114829;28;20055;-65
2021/05/05 06:12:34;;;;;;;11.38;2.60;;;;;;;28.18;43.14;100901.22;5114220;28;20071;-65
2021/05/05 06:15:04;;;;;;;12.10;2.15;;;;;;;28.29;42.82;100897.91;5114561;28;20046;-65
2021/05/05 06:17:31;;;;;;;9.95;4.10;;;;;;;28.13;42.84;100886.97;5114589;28;20069;-65
2021/05/05 06:19:59;;;;;;;13.85;3.05;;;;;;;27.97;43.24;100894.19;5114579;27;20051;-65
2021/05/05 06:22:26;;;;;;;10.20;2.95;;;;;;;28.13;42.96;100893.28;5114738;28;20030;-66
2021/05/05 06:24:52;;;;;;;11.10;2.28;;;;;;;28.34;42.60;100891.25;5114465;28;20050;-65
2021/05/05 06:27:19;;;;;;;12.27;2.42;;;;;;;28.58;41.97;100888.97;5106028;28;20046;-65
2021/05/05 06:29:47;;;;;;;12.10;2.80;;;;;;;28.50;41.96;100897.56;5113338;28;20458;-65
2021/05/05 06:32:16;;;;;;;11.80;2.60;;;;;;;28.36;42.32;100888.44;5114271;28;20108;-65
2021/05/05 06:34:43;;;;;;;13.30;3.20;;;;;;;28.19;42.43;100883.97;5112905;28;20422;-65
2021/05/05 06:37:11;;;;;;;11.98;2.50;;;;;;;28.05;42.66;100881.97;5110603;28;20043;-65
2021/05/05 06:39:37;;;;;;;18.35;2.25;;;;;;;27.90;43.05;100871.94;5114277;28;20172;-65
2021/05/05 06:42:05;;;;;;;11.18;2.15;;;;;;;27.72;43.43;100873.81;5101287;28;20123;-65
2021/05/05 06:44:31;;;;;;;10.88;2.60;;;;;;;27.69;43.38;100873.13;5087149;28;20040;-65
2021/05/05 06:46:59;;;;;;;8.38;2.20;;;;;;;27.90;43.46;100871.06;5080744;28;20160;-66
2021/05/05 06:49:29;;;;;;;9.98;2.63;;;;;;;28.16;42.91;100865.09;5092498;28;20063;-66
2021/05/05 06:51:56;;;;;;;12.05;2.03;;;;;;;28.26;42.46;100865.47;5093625;28;20487;-65
2021/05/05 06:54:24;;;;;;;9.25;2.25;;;;;;;28.74;41.64;100860.00;5093320;28;20029;-65
2021/05/05 06:56:51;;;;;;;19.40;2.58;;;;;;;29.21;41.16;100868.03;5092832;28;20459;-66
2021/05/05 06:59:18;;;;;;;7.57;2.03;;;;;;;29.49;40.53;100870.00;5092201;28;20440;-66
2021/05/05 07:01:45;;;;;;;12.88;2.65;;;;;;;29.77;40.20;100877.34;5092500;28;20415;-65
2021/05/05 07:04:12;;;;;;;9.52;2.42;;;;;;;30.03;40.03;100875.75;5087427;28;20036;-66
2021/05/05 07:06:41;;;;;;;13.38;2.53;;;;;;;30.32;38.67;100871.16;5083207;28;20036;-65
2021/05/05 07:09:08;;;;;;;11.60;2.38;;;;;;;30.22;38.07;100878.16;5093494;28;20487;-65
2021/05/05 07:11:38;;;;;;;9.43;2.50;;;;;;;30.44;37.24;100873.09;5092253;28;20060;-65
2021/05/05 07:14:07;;;;;;;11.52;2.22;;;;;;;30.62;37.05;100877.38;5092802;28;20051;-65
2021/05/05 07:16:34;;;;;;;12.13;2.17;;;;;;;30.69;37.25;100883.28;5092489;28;20492;-65
2021/05/05 07:19:02;;;;;;;8.73;1.90;;;;;;;30.57;37.29;100874.06;5093100;28;20075;-65
2021/05/05 07:21:30;;;;;;;14.80;2.85;;;;;;;30.37;37.50;100871.75;5092376;28;20044;-65
2021/05/05 07:24:01;;;;;;;12.70;2.90;;;;;;;30.27;37.75;100871.44;5092365;28;20542;-65
2021/05/05 07:26:28;;;;;;;12.93;2.97;;;;;;;29.93;37.78;100874.59;5091696;28;20028;-65
2021/05/05 07:28:56;;;;;;;11.60;2.40;;;;;;;29.64;37.87;100868.19;5092140;28;20110;-65
2021/05/05 07:31:24;;;;;;;13.55;2.08;;;;;;;29.59;37.48;100873.06;5090529;28;20376;-65
2021/05/05 07:33:52;;;;;;;7.88;1.98;;;;;;;29.46;37.31;100885.66;5092038;28;20042;-65
2021/05/05 07:36:24;;;;;;;7.03;1.85;;;;;;;29.30;37.23;100886.53;5091514;28;20056;-65
2021/05/05 07:39:14;;;;;;;10.17;2.13;;;;;;;29.28;37.10;100893.03;5091884;28;20442;-65
2021/05/05 07:47:24;;;;;;;10.73;2.13;;;;;;;29.26;36.75;100905.88;5112931;28;20054;-65
2021/05/05 07:49:54;;;;;;;12.45;3.00;;;;;;;29.66;36.31;100909.81;5112779;28;20067;-65
2021/05/05 07:52:22;;;;;;;9.18;1.75;;;;;;;29.79;35.74;100918.97;5112402;28;20042;-65
2021/05/05 07:54:49;;;;;;;11.30;2.35;;;;;;;29.78;35.87;100913.63;5112441;28;20111;-65
2021/05/05 07:57:19;;;;;;;9.13;2.13;;;;;;;29.94;35.62;100918.03;5112285;28;20063;-65
2021/05/05 07:59:46;;;;;;;13.40;2.20;;;;;;;29.97;35.60;100926.03;5111431;28;20036;-65
2021/05/05 08:02:14;;;;;;;11.95;2.00;;;;;;;30.02;35.73;100923.00;5112584;28;20119;-65
2021/05/05 08:04:48;;;;;;;10.75;2.40;;;;;;;30.21;35.40;100920.00;5112218;28;20070;-65
2021/05/05 08:07:16;;;;;;;12.27;2.92;;;;;;;30.29;35.17;100921.28;5112244;28;20096;-65
2021/05/05 08:09:44;;;;;;;15.70;2.25;;;;;;;30.63;34.74;100930.03;5112514;28;20096;-65
2021/05/05 08:12:11;;;;;;;9.32;2.30;;;;;;;30.85;34.39;100928.50;5112462;28;20043;-66
2021/05/05 08:14:40;;;;;;;12.98;2.83;;;;;;;31.20;34.12;100922.59;5111063;28;20044;-65
2021/05/05 08:17:08;;;;;;;13.93;2.72;;;;;;;31.20;33.89;100937.09;5112596;28;20071;-65
2021/05/05 08:19:36;;;;;;;12.95;2.60;;;;;;;31.24;33.65;100937.78;5112296;28;20043;-66
2021/05/05 08:22:04;;;;;;;11.63;2.08;;;;;;;31.44;33.26;100923.63;5112341;28;20072;-65
2021/05/05 08:24:31;;;;;;;11.43;3.10;;;;;;;31.41;33.41;100929.31;5111481;28;20481;-65
2021/05/05 08:27:00;;;;;;;9.63;2.40;;;;;;;31.53;32.84;100930.31;5111023;28;20074;-65
2021/05/05 08:29:28;;;;;;;9.93;2.85;;;;;;;31.36;33.49;100926.03;5112317;28;20038;-65
2021/05/05 08:31:57;;;;;;;12.77;2.60;;;;;;;31.07;33.91;100930.72;5112204;28;20119;-65
2021/05/05 08:34:25;;;;;;;12.15;2.55;;;;;;;30.52;34.66;100919.84;5111643;28;20035;-65
2021/05/05 08:36:52;;;;;;;10.70;2.42;;;;;;;30.16;35.26;100927.59;5111969;28;20097;-65
2021/05/05 08:39:20;;;;;;;10.93;2.45;;;;;;;30.08;35.46;100934.41;5111766;28;20434;-66
2021/05/05 08:41:47;;;;;;;13.77;2.70;;;;;;;30.32;35.27;100940.16;5111257;28;20043;-66
2021/05/05 08:44:16;;;;;;;12.20;2.20;;;;;;;30.64;34.87;100935.41;5111404;28;20474;-65
2021/05/05 08:46:46;;;;;;;9.65;2.35;;;;;;;31.24;34.10;100937.78;5111301;28;20068;-65
2021/05/05 08:49:16;;;;;;;11.60;2.35;;;;;;;31.55;33.53;100937.44;5111733;28;20449;-65
2021/05/05 08:51:44;;;;;;;10.02;2.25;;;;;;;31.53;33.31;100935.78;5111410;28;20502;-65
2021/05/05 08:54:12;;;;;;;12.52;2.70;;;;;;;31.65;33.25;100932.22;5111245;28;20055;-65
2021/05/05 08:56:39;;;;;;;8.75;2.08;;;;;;;31.40;33.44;100946.66;5112015;28;20466;-65
2021/05/05 08:59:09;;;;;;;10.20;2.00;;;;;;;30.93;33.87;100949.81;5111918;28;20055;-65
2021/05/05 09:01:37;;;;;;;9.98;2.10;;;;;;;30.91;34.00;100948.19;5111155;28;20046;-65
2021/05/05 09:04:05;;;;;;;10.40;2.08;;;;;;;30.78;34.70;100953.59;5111186;28;20454;-65
2021/05/05 09:06:56;;;;;;;11.73;2.33;;;;;;;30.66;35.00;100948.91;5111947;28;20112;-65
2021/05/05 09:09:38;;;;;;;9.27;2.15;;;;;;;30.62;35.08;100950.97;5111263;28;20081;-65
2021/05/05 09:12:17;;;;;;;11.73;2.17;;;;;;;30.71;34.78;100946.78;5111431;28;20035;-65
2021/05/05 09:14:54;;;;;;;15.13;2.72;;;;;;;30.81;34.26;100948.78;5090646;28;20047;-65
2021/05/05 09:17:24;;;;;;;12.60;2.83;;;;;;;30.78;34.15;100943.56;5105705;28;20035;-65
2021/05/05 09:19:56;;;;;;;5.97;1.58;;;;;;;30.70;34.24;100953.19;5111379;28;20055;-66
2021/05/05 09:22:38;;;;;;;13.63;2.30;;;;;;;30.59;33.67;100953.03;5110909;28;20032;-66
2021/05/05 09:25:07;;;;;;;11.80;2.38;;;;;;;30.74;33.32;100955.63;5111414;28;20043;-66
2021/05/05 09:27:35;;;;;;;12.75;2.55;;;;;;;30.73;32.79;100950.25;5111391;28;20056;-65
2021/05/05 09:30:05;;;;;;;15.73;3.08;;;;;;;30.83;33.00;100948.69;5110388;28;20039;-65
2021/05/05 09:32:49;;;;;;;10.98;2.17;;;;;;;31.13;33.33;100949.41;5111237;28;20507;-65
2021/05/05 09:35:17;;;;;;;13.18;2.33;;;;;;;31.23;33.17;100950.56;5111285;28;20418;-65
2021/05/05 09:37:58;;;;;;;11.38;2.00;;;;;;;31.38;32.60;100945.88;5110855;28;20066;-66
2021/05/05 09:40:25;;;;;;;11.90;2.92;;;;;;;31.30;32.81;100937.38;5110823;28;20059;-65
2021/05/05 09:42:53;;;;;;;8.68;1.83;;;;;;;31.54;32.37;100934.81;5109529;28;20429;-65
2021/05/05 09:45:22;;;;;;;14.90;2.10;;;;;;;31.67;32.49;100943.94;5109800;28;20066;-66
2021/05/05 09:47:56;;;;;;;11.35;1.88;;;;;;;31.78;32.76;100937.72;5110344;28;20063;-66
2021/05/05 09:50:32;;;;;;;11.05;2.40;;;;;;;31.78;32.08;100937.72;5110750;28;20073;-66
2021/05/05 09:53:21;;;;;;;7.80;1.92;;;;;;;31.73;32.06;100931.69;5110312;28;20380;-66
2021/05/05 09:56:10;;;;;;;10.15;1.65;;;;;;;31.48;32.25;100933.38;5104111;28;20040;-66
2021/05/05 09:58:38;;;;;;;11.20;2.20;;;;;;;31.41;32.83;100931.16;5092316;28;20044;-66
2021/05/05 10:01:21;;;;;;;10.98;2.40;;;;;;;31.52;32.48;100937.63;5103836;28;20535;-66
2021/05/05 10:03:53;;;;;;;6.03;1.90;;;;;;;31.32;32.53;100935.38;5095805;28;20070;-65
2021/05/05 10:06:31;;;;;;;9.52;2.30;;;;;;;31.17;32.45;100933.72;5090564;28;20400;-65
2021/05/05 10:09:04;;;;;;;9.02;2.33;;;;;;;30.98;32.86;100936.78;5106403;28;20039;-65
2021/05/05 10:11:33;;;;;;;13.60;2.78;;;;;;;31.06;32.84;100934.44;5095994;28;20048;-66
2021/05/05 10:14:02;;;;;;;7.78;1.75;;;;;;;30.90;32.93;100928.22;5108681;28;20127;-66
2021/05/05 10:16:32;;;;;;;12.25;2.28;;;;;;;30.81;32.71;100931.56;5103945;28;20040;-65
2021/05/05 10:19:01;;;;;;;12.13;2.25;;;;;;;30.79;32.88;100926.19;5092618;28;20063;-66
2021/05/05 10:21:30;;;;;;;11.95;2.40;;;;;;;30.82;32.55;100927.84;5097125;28;20040;-65
2021/05/05 10:24:00;;;;;;;13.40;3.00;;;;;;;30.81;33.21;100926.97;5103772;28;20032;-66
2021/05/05 10:26:29;;;;;;;9.27;2.30;;;;;;;30.33;34.40;100927.38;5096702;27;20123;-65
2021/05/05 10:28:57;;;;;;;8.48;1.98;;;;;;;29.94;35.00;100919.88;5102867;28;20063;-66
2021/05/05 10:31:27;;;;;;;12.85;3.00;;;;;;;29.97;34.60;100915.13;5110989;28;20040;-66
2021/05/05 10:33:56;;;;;;;10.77;2.20;;;;;;;30.01;34.89;100911.25;5103060;28;20031;-66
2021/05/05 10:36:36;;;;;;;12.52;2.58;;;;;;;30.05;34.58;100904.66;5111520;28;20560;-65
2021/05/05 10:39:32;;;;;;;10.65;2.15;;;;;;;30.11;34.10;100917.00;5111670;28;20040;-66
2021/05/05 10:42:11;;;;;;;11.68;2.75;;;;;;;29.85;33.91;100887.78;5112198;27;20097;-66
2021/05/05 10:44:40;;;;;;;11.45;2.20;;;;;;;29.77;33.95;100885.53;5113496;28;20063;-65
2021/05/05 10:47:19;;;;;;;6.03;2.42;;;;;;;29.69;34.02;100893.28;5113922;28;20039;-66
2021/05/05 10:50:13;;;;;;;9.75;1.90;;;;;;;29.97;33.80;100898.81;5113996;28;20119;-65
2021/05/05 10:53:07;;;;;;;11.40;2.50;;;;;;;30.06;33.53;100895.47;5111629;28;20040;-66
2021/05/05 10:55:39;;;;;;;10.38;2.28;;;;;;;29.89;33.35;100886.59;5109009;28;20365;-65
2021/05/05 10:58:10;;;;;;;10.70;2.13;;;;;;;30.16;32.65;100884.88;5113376;28;20043;-66
2021/05/05 11:00:52;;;;;;;11.73;1.98;;;;;;;30.62;31.58;100879.22;5095764;28;20063;-66
2021/05/05 11:04:01;;;;;;;8.13;2.72;;;;;;;30.98;31.25;100884.97;5108902;28;20084;-65
2021/05/05 11:06:51;;;;;;;9.68;2.20;;;;;;;31.29;30.92;100875.59;5104105;28;20526;-66
2021/05/05 11:09:46;;;;;;;7.85;1.75;;;;;;;31.55;30.09;100879.22;5110994;28;20044;-66
2021/05/05 11:12:41;;;;;;;8.95;2.13;;;;;;;31.64;29.28;100884.06;5110901;28;20391;-66
2021/05/05 11:15:10;;;;;;;10.82;1.85;;;;;;;31.67;29.85;100868.34;5112997;28;20039;-65
2021/05/05 11:17:37;;;;;;;9.65;1.90;;;;;;;31.61;30.50;100878.84;5113161;28;20118;-66
2021/05/05 11:20:06;;;;;;;15.00;2.30;;;;;;;31.41;30.23;100879.31;5113046;28;20066;-65
2021/05/05 11:22:46;;;;;;;13.00;2.15;;;;;;;31.27;30.43;100881.13;5112487;28;20040;-66
2021/05/05 11:25:27;;;;;;;6.30;1.80;;;;;;;31.45;30.67;100880.84;5112219;28;20070;-65
2021/05/05 11:27:59;;;;;;;6.75;2.25;;;;;;;31.52;31.06;100877.56;5113497;28;20040;-66
2021/05/05 11:30:57;;;;;;;11.38;2.15;;;;;;;31.47;30.39;100873.41;5112515;28;20040;-65
2021/05/05 11:33:24;;;;;;;10.13;2.63;;;;;;;31.64;30.30;100871.28;5108326;28;20431;-65
2021/05/05 11:35:53;;;;;;;11.77;2.42;;;;;;;31.85;29.95;100868.00;5110565;28;20092;-65
2021/05/05 11:38:29;;;;;;;7.60;1.70;;;;;;;31.86;29.40;100867.03;5112624;28;20039;-65